Date,TemperatureHighF,TemperatureAvgF,TemperatureLowF,DewpointHighF,DewpointAvgF,DewpointLowF,HumidityHigh,HumidityAvg,HumidityLow,PressureMaxIn,PressureMinIn,WindSpeedMaxMPH,WindSpeedAvgMPH,GustSpeedMaxMPH,PrecipitationSumIn
2013-1-1,54,43,36,38,35,32,89,74,51,30.27,30.20,7,0,11,0.00
2013-1-2,61,42,32,39,11,-100,91,59,33,30.24,30.13,3,0,5,0.00
2013-1-3,60,42,33,41,29,-100,91,74,43,30.26,30.16,1,0,5,0.01
2013-1-4,62,46,36,42,10,-100,91,57,40,30.29,30.18,2,0,5,0.00
2013-1-5,57,50,42,48,44,38,91,81,66,30.26,30.07,7,1,17,0.15
2013-1-6,49,46,41,46,-44,-100,92,34,82,30.20,30.05,4,0,10,0.04
2013-1-7,61,47,38,48,-37,-100,91,33,56,30.26,30.15,5,0,6,0.01
2013-1-8,65,50,41,50,-22,-100,90,39,48,30.23,30.12,3,0,8,0.01
2013-1-9,56,47,41,48,-9,-100,91,52,73,30.14,30.00,6,0,12,0.00
2013-1-10,53,44,38,39,36,32,88,73,49,30.20,30.07,6,1,16,0.02
2013-1-11,54,43,33,40,35,31,91,74,48,30.27,30.14,5,0,15,0.00
2013-1-12,53,41,34,37,25,-100,91,65,27,30.25,30.14,4,0,6,0.00
2013-1-13,51,38,29,29,24,15,87,63,25,30.27,30.17,5,0,9,0.00
2013-1-14,52,39,30,26,20,12,72,50,24,30.40,30.23,6,0,11,0.00
2013-1-15,57,40,30,30,26,22,81,61,28,30.48,30.40,3,0,9,0.00
2013-1-16,60,42,31,35,31,28,88,68,31,30.43,30.26,3,0,6,0.00
2013-1-17,67,46,33,39,34,30,91,67,28,30.26,30.14,2,0,6,0.00
2013-1-18,67,47,35,41,36,32,90,70,33,30.22,30.13,3,0,5,0.00
2013-1-19,66,47,35,42,36,32,89,70,33,30.24,30.15,3,0,6,0.00
2013-1-20,67,47,35,39,35,31,88,66,27,30.23,30.12,3,0,5,0.00
2013-1-21,69,47,33,41,34,30,89,67,27,30.18,30.08,3,0,5,0.00
2013-1-22,66,48,34,45,36,30,86,65,35,30.10,30.00,1,0,4,0.00
2013-1-23,62,53,47,49,42,22,92,68,22,30.07,29.95,3,0,9,0.08
2013-1-24,54,53,51,-100,-100,-100,0,0,100,30.18,30.05,0,0,2,0.36
2013-1-25,65,57,53,58,-28,-100,91,39,75,30.18,30.04,3,0,5,0.00
2013-1-26,60,52,41,54,0,-100,92,52,45,30.09,29.99,7,1,15,0.00
2013-1-27,57,46,38,42,36,26,90,71,31,30.18,30.08,5,0,9,0.00
2013-1-28,59,46,38,43,38,35,89,77,43,30.30,30.17,8,0,11,0.00
2013-1-29,58,46,38,44,18,-100,92,64,50,30.36,30.27,6,0,8,0.00
2013-1-30,69,53,42,44,40,38,89,66,33,30.34,30.25,4,0,9,0.00
2013-1-31,69,50,38,45,40,36,92,73,36,30.28,30.17,2,0,5,0.00
2013-2-1,71,52,39,47,35,-100,92,69,41,30.21,30.11,5,0,9,0.00
2013-2-2,60,51,44,50,38,-100,92,79,68,30.28,30.21,2,0,5,0.00
2013-2-3,60,50,42,48,43,39,90,77,54,30.26,30.13,5,1,8,0.00
2013-2-4,62,48,38,49,-1,-100,92,56,63,30.19,30.07,3,0,5,0.00
2013-2-5,57,50,42,46,44,40,90,80,61,30.16,30.08,7,1,11,0.00
2013-2-6,62,47,37,45,13,-100,92,59,43,30.19,30.12,4,0,8,0.00
2013-2-7,56,46,37,46,39,34,92,79,45,30.19,30.01,7,1,11,0.05
2013-2-8,55,44,37,42,38,34,92,80,50,30.01,29.95,9,1,11,0.02
2013-2-9,60,44,33,37,30,23,90,64,25,30.11,30.00,7,0,9,0.00
2013-2-10,62,46,33,37,32,29,88,64,33,30.12,30.02,6,0,10,0.00
2013-2-11,64,48,36,39,31,22,89,59,22,30.23,30.07,8,1,11,0.00
2013-2-12,64,48,36,39,35,31,88,65,31,30.35,30.24,7,0,7,0.00
2013-2-13,67,50,37,43,38,34,92,68,31,30.34,30.21,6,0,9,0.00
2013-2-14,71,53,38,47,39,36,92,64,29,30.24,30.15,6,1,11,0.00
2013-2-15,75,56,41,45,40,37,87,62,28,30.26,30.19,3,0,6,0.00
2013-2-16,71,54,42,47,42,39,89,68,36,30.22,30.05,3,0,8,0.00
2013-2-17,66,50,42,49,18,-100,92,61,40,30.07,29.96,5,0,7,0.00
2013-2-18,52,47,40,44,40,36,91,79,59,30.05,29.98,5,0,9,0.00
2013-2-19,51,44,39,43,39,34,87,80,69,29.99,29.77,7,1,18,0.25
2013-2-20,60,46,34,39,34,27,91,69,31,30.08,29.84,6,1,13,0.00
2013-2-21,61,46,35,44,34,29,93,67,31,30.18,30.07,5,1,12,0.00
2013-2-22,65,49,35,42,36,31,88,65,29,30.26,30.17,5,0,9,0.00
2013-2-23,60,50,44,45,38,31,88,65,36,30.26,30.15,10,1,13,0.00
2013-2-24,63,49,37,36,28,21,75,49,21,30.26,30.16,8,1,14,0.00
2013-2-25,63,49,36,42,36,29,87,64,38,30.28,30.17,5,1,11,0.00
2013-2-26,68,51,37,41,31,20,91,55,17,30.21,30.13,6,1,13,0.00
2013-2-27,71,52,36,39,34,29,85,56,22,30.38,30.21,5,0,9,0.00
2013-2-28,69,54,42,51,45,38,91,74,46,30.45,30.37,7,1,11,0.00
2013-3-1,75,57,43,52,46,41,93,72,38,30.43,30.23,5,0,8,0.00
2013-3-2,75,60,48,50,45,36,89,63,26,30.24,30.05,6,1,13,0.00
2013-3-3,64,56,50,51,47,43,86,72,51,30.10,30.02,4,1,9,0.00
2013-3-4,63,52,43,46,43,39,87,74,53,30.14,30.04,6,1,12,0.00
2013-3-5,55,49,43,43,40,38,88,72,54,30.07,29.88,12,2,24,0.00
2013-3-6,57,50,41,46,40,35,86,71,46,30.08,29.88,11,2,23,0.00
2013-3-7,58,48,38,44,38,32,90,73,38,30.00,29.85,9,1,12,0.00
2013-3-8,60,50,42,46,14,-100,92,56,40,30.09,29.83,11,1,15,0.00
2013-3-9,67,51,40,43,38,31,89,66,27,30.31,30.09,5,1,11,0.00
2013-3-10,72,54,39,45,36,27,90,58,19,30.34,30.24,5,0,10,0.00
2013-3-11,75,56,39,44,38,34,86,57,23,30.26,30.11,5,0,10,0.00
2013-3-12,76,56,45,50,36,-100,92,64,35,30.16,30.05,4,0,7,0.00
2013-3-13,80,61,46,54,39,-100,92,63,35,30.16,30.05,5,0,8,0.00
2013-3-14,74,58,47,53,47,32,91,69,26,30.16,30.07,4,0,8,0.00
2013-3-15,73,57,44,48,45,40,89,67,34,30.13,30.05,6,0,9,0.00
2013-3-16,74,57,47,50,46,41,92,71,31,30.11,30.03,5,0,10,0.00
2013-3-17,72,55,42,46,40,32,91,63,25,30.15,30.04,7,1,10,0.00
2013-3-18,68,55,41,48,42,38,89,65,37,30.13,30.03,3,0,6,0.00
2013-3-19,75,58,44,51,43,36,90,61,29,30.14,30.05,7,1,9,0.00
2013-3-20,67,58,54,54,50,38,92,77,39,30.13,30.05,13,1,13,0.00
2013-3-21,66,55,43,49,41,38,82,64,36,30.13,30.00,7,1,12,0.00
2013-3-22,69,55,43,40,31,17,87,50,14,30.11,30.01,6,1,12,0.00
2013-3-23,70,55,42,39,30,16,76,46,14,30.14,30.03,5,0,11,0.00
2013-3-24,72,55,40,46,41,36,87,62,33,30.09,29.96,6,0,10,0.00
2013-3-25,63,52,43,46,43,40,89,73,53,30.02,29.95,7,1,11,0.00
2013-3-26,69,55,45,47,43,41,84,66,42,30.01,29.92,5,1,11,0.00
2013-3-27,67,57,46,51,47,42,87,72,53,30.01,29.95,8,1,18,0.00
2013-3-28,75,62,55,53,50,49,86,69,42,30.07,29.99,9,1,11,0.00
2013-3-29,77,63,53,53,50,47,85,66,37,30.07,29.98,9,1,20,0.00
2013-3-30,70,59,54,52,49,44,86,70,40,30.06,29.97,12,3,22,0.00
2013-3-31,67,58,52,54,50,46,92,74,50,30.06,29.99,15,2,18,0.00
2013-4-1,68,59,52,53,50,45,91,74,44,30.15,30.04,9,2,14,0.16
2013-4-2,71,59,48,51,48,44,88,69,42,30.18,30.07,6,0,12,0.00
2013-4-3,80,60,47,52,48,44,91,68,31,30.14,29.95,10,1,12,0.00
2013-4-4,63,58,52,55,51,47,90,76,63,30.11,30.00,13,2,18,0.07
2013-4-5,66,58,50,50,48,45,84,71,55,30.18,30.11,4,0,9,0.00
2013-4-6,69,58,49,52,49,45,88,73,54,30.19,30.13,5,1,9,0.00
2013-4-7,69,58,50,53,47,42,87,68,41,30.16,29.88,6,1,10,0.00
2013-4-8,67,55,48,48,35,26,85,51,25,30.02,29.84,10,3,21,0.02
2013-4-9,75,60,46,40,34,27,77,43,18,30.08,30.01,8,1,16,0.00
2013-4-10,86,67,50,49,43,39,77,46,22,30.17,30.03,9,1,14,0.00
2013-4-11,72,59,50,49,44,35,87,63,28,30.07,29.85,5,1,10,0.00
2013-4-12,78,58,43,48,43,38,90,64,27,29.92,29.82,6,1,10,0.00
2013-4-13,71,55,45,48,43,38,88,66,39,29.92,29.84,6,1,11,0.00
2013-4-14,69,55,41,44,39,28,88,59,27,29.94,29.86,8,1,16,0.00
2013-4-15,58,51,43,45,36,30,85,59,37,29.97,29.86,14,2,22,0.00
2013-4-16,67,52,38,37,31,22,83,50,18,30.14,29.97,10,1,14,0.00
2013-4-17,69,56,42,35,29,22,70,40,17,30.26,30.14,9,1,15,0.00
2013-4-18,76,59,41,42,33,25,75,44,17,30.26,30.17,7,1,11,0.00
2013-4-19,84,64,44,48,41,36,78,49,20,30.23,30.07,5,0,11,0.00
2013-4-20,82,63,47,49,42,31,87,53,16,30.10,29.97,7,1,10,0.00
2013-4-21,87,66,47,50,40,29,84,47,13,30.03,29.91,6,1,10,0.00
2013-4-22,88,70,52,49,40,27,69,41,11,29.96,29.82,6,1,10,0.00
2013-4-23,83,65,51,48,37,20,77,44,12,29.93,29.84,6,1,11,0.00
2013-4-24,66,56,45,49,46,41,88,69,50,29.95,29.83,14,3,21,0.00
2013-4-25,72,60,50,50,48,44,82,64,44,30.13,29.95,7,2,12,0.00
2013-4-26,72,60,53,50,48,46,80,66,45,30.22,30.12,6,1,9,0.00
2013-4-27,79,62,51,52,48,45,82,64,37,30.22,30.08,5,0,9,0.00
2013-4-28,86,65,49,51,48,45,89,61,24,30.08,29.87,5,0,7,0.00
2013-4-29,90,72,54,55,46,38,82,48,16,29.89,29.75,7,1,9,0.00
2013-4-30,83,66,50,50,44,35,87,51,19,29.84,29.77,9,1,12,0.00
2013-5-1,85,69,52,41,30,19,54,28,10,30.08,29.84,6,1,12,0.00
2013-5-2,92,72,51,44,37,28,66,35,11,30.14,30.05,6,0,10,0.00
2013-5-3,90,71,52,42,34,23,61,32,9,30.09,29.79,7,1,11,0.00
2013-5-4,87,66,53,47,41,31,72,45,15,29.79,29.55,14,3,30,0.00
2013-5-5,66,59,54,49,46,43,73,63,44,29.80,29.60,16,3,23,0.00
2013-5-6,68,60,50,50,47,45,83,64,46,29.96,29.81,10,2,19,0.00
2013-5-7,73,63,54,51,47,43,76,58,39,30.05,29.95,6,1,14,0.00
2013-5-8,68,59,52,51,48,45,78,69,54,30.15,30.03,6,1,11,0.00
2013-5-9,69,59,53,50,48,46,78,68,48,30.18,30.09,6,1,12,0.00
2013-5-10,74,61,53,54,50,47,84,69,48,30.18,30.11,6,1,8,0.00
2013-5-11,89,67,52,55,51,49,89,61,27,30.16,30.02,5,0,9,0.00
2013-5-12,82,67,52,58,51,47,87,60,38,30.14,30.03,8,1,9,0.00
2013-5-13,80,64,52,56,51,46,85,64,39,30.09,29.96,6,1,9,0.00
2013-5-14,80,63,50,53,48,43,88,62,36,30.03,29.93,7,1,15,0.00
2013-5-15,75,60,46,47,44,38,86,59,27,30.07,30.02,7,1,12,0.00
2013-5-16,70,59,51,52,47,42,81,66,47,30.05,29.97,9,1,13,0.00
2013-5-17,71,58,47,47,43,39,86,59,34,30.10,30.00,8,1,13,0.00
2013-5-18,75,60,44,50,44,38,83,59,27,30.14,30.08,7,1,11,0.00
2013-5-19,84,65,47,48,43,36,85,51,18,30.12,29.96,6,1,12,0.00
2013-5-20,90,70,50,50,40,24,81,43,10,29.99,29.91,9,1,13,0.00
2013-5-21,72,60,49,48,42,30,83,55,23,29.99,29.91,8,1,14,0.00
2013-5-22,68,55,45,37,30,17,68,43,15,30.02,29.92,9,1,13,0.00
2013-5-23,69,55,42,43,38,33,82,56,27,30.01,29.95,6,1,12,0.00
2013-5-24,73,57,42,45,40,35,83,56,30,30.01,29.95,8,1,11,0.00
2013-5-25,71,57,44,44,41,37,80,57,32,30.07,29.99,7,1,12,0.00
2013-5-26,73,61,50,50,47,43,80,63,34,30.14,30.06,6,1,13,0.00
2013-5-27,64,58,49,53,49,45,87,73,61,30.14,30.01,7,0,8,0.00
2013-5-28,71,63,55,54,52,46,84,68,49,30.00,29.91,7,1,12,0.00
2013-5-29,72,62,52,53,48,43,81,62,37,29.98,29.90,9,1,14,0.00
2013-5-30,77,61,45,47,43,38,86,56,26,29.99,29.93,5,1,10,0.00
2013-5-31,88,67,47,49,44,33,85,49,15,30.02,29.90,9,1,12,0.00
2013-6-1,93,68,52,51,47,38,82,53,16,29.93,29.77,8,0,9,0.00
2013-6-2,82,64,53,54,50,47,85,64,35,29.78,29.67,4,1,9,0.00
2013-6-3,74,60,49,52,48,45,87,66,46,29.85,29.71,9,2,25,0.00
2013-6-4,77,63,51,54,50,47,86,65,43,29.96,29.84,9,2,15,0.00
2013-6-5,76,63,54,54,51,48,83,67,46,29.99,29.90,5,1,11,0.00
2013-6-6,82,65,53,55,52,47,81,64,39,29.95,29.83,6,1,8,0.00
2013-6-7,93,70,54,58,54,49,84,60,28,29.89,29.72,6,0,9,0.00
2013-6-8,95,72,58,60,54,51,80,56,28,29.79,29.68,14,3,27,0.00
2013-6-9,69,62,57,54,52,49,79,69,58,29.87,29.78,17,6,30,0.00
2013-6-10,70,62,57,51,49,47,74,64,50,29.94,29.84,17,4,22,0.00
2013-6-11,76,64,55,55,52,49,80,66,47,29.96,29.89,6,1,11,0.00
2013-6-12,79,64,49,52,46,39,87,57,29,30.02,29.90,7,1,12,0.00
2013-6-13,80,64,46,49,42,35,83,51,20,30.08,29.99,5,1,12,0.00
2013-6-14,87,68,51,51,44,33,86,52,15,29.99,29.81,8,1,11,0.00
2013-6-15,78,62,50,53,49,45,86,65,40,30.01,29.83,6,1,11,0.00
2013-6-16,79,64,48,51,48,45,90,60,35,30.10,30.00,6,1,10,0.00
2013-6-17,77,64,51,54,50,46,87,63,39,30.10,30.03,12,1,12,0.00
2013-6-18,71,62,53,52,46,39,81,60,32,30.05,30.00,12,1,16,0.00
2013-6-19,74,62,50,47,44,40,79,54,35,30.06,29.99,9,1,15,0.00
2013-6-20,80,64,48,46,42,31,83,51,17,30.02,29.94,7,1,14,0.00
2013-6-21,84,64,48,50,46,41,84,56,24,29.97,29.91,9,1,9,0.00
2013-6-22,87,68,50,52,48,44,86,54,23,29.93,29.85,7,1,11,0.00
2013-6-23,73,64,54,59,54,50,86,72,56,29.89,29.81,5,0,8,0.00
2013-6-24,68,64,62,59,57,55,88,77,67,29.91,29.78,8,2,12,0.00
2013-6-25,75,68,62,61,58,53,79,71,59,29.98,29.89,12,2,18,0.00
2013-6-26,84,72,63,63,60,57,84,66,46,30.04,29.96,8,1,10,0.00
2013-6-27,86,70,59,60,57,52,89,67,33,30.06,30.00,5,0,8,0.00
2013-6-28,97,77,60,60,56,54,81,54,24,30.02,29.89,6,1,9,0.00
2013-6-29,100,79,62,57,53,45,68,45,19,29.92,29.79,5,0,10,0.00
2013-6-30,91,74,60,59,56,53,79,57,30,29.84,29.75,8,0,8,0.00
2013-7-1,95,77,59,58,55,52,82,52,26,29.83,29.79,6,0,8,0.00
2013-7-2,94,79,66,60,56,49,79,50,24,29.90,29.80,12,2,26,0.00
2013-7-3,95,74,62,59,58,55,85,61,26,29.90,29.75,3,0,8,0.00
2013-7-4,96,78,67,61,59,55,75,53,27,29.76,29.67,4,0,8,0.00
2013-7-5,80,68,57,56,53,51,82,60,41,29.78,29.70,6,1,10,0.00
2013-7-6,81,63,52,53,50,48,86,65,33,29.79,29.71,9,1,15,0.00
2013-7-7,85,66,49,56,51,45,88,62,31,29.85,29.76,6,1,9,0.00
2013-7-8,88,66,51,57,51,46,84,63,27,29.97,29.85,7,1,9,0.00
2013-7-9,92,72,54,56,53,46,84,55,21,30.01,29.90,5,0,8,0.00
2013-7-10,85,69,57,58,55,52,85,63,39,29.97,29.87,5,1,10,0.00
2013-7-11,82,66,56,56,53,49,82,65,39,29.94,29.87,6,1,9,0.00
2013-7-12,83,65,52,56,52,48,88,65,33,29.92,29.86,5,0,9,0.00
2013-7-13,87,69,51,54,51,46,88,57,26,29.95,29.88,5,1,8,0.00
2013-7-14,81,66,53,57,53,49,87,65,41,29.99,29.89,5,1,9,0.00
2013-7-15,76,63,54,55,52,48,83,68,45,29.92,29.81,5,1,10,0.00
2013-7-16,74,63,55,54,51,48,81,66,45,30.03,29.87,8,2,15,0.00
2013-7-17,78,66,59,56,53,51,81,65,46,30.09,30.02,6,1,8,0.00
2013-7-18,86,68,56,56,53,47,83,61,28,30.07,29.93,5,1,11,0.00
2013-7-19,87,69,56,57,54,52,87,63,35,29.95,29.81,6,1,9,0.00
2013-7-20,89,68,57,57,54,51,85,65,34,29.85,29.71,4,0,8,0.00
2013-7-21,87,69,53,56,52,46,85,57,24,29.86,29.75,11,2,22,0.00
2013-7-22,81,69,58,59,53,40,85,60,26,29.94,29.86,12,1,18,0.00
2013-7-23,84,71,63,59,57,55,82,64,42,29.98,29.93,8,1,10,0.00
2013-7-24,89,72,58,58,54,47,87,57,27,29.97,29.89,6,1,9,0.00
2013-7-25,86,70,56,59,55,52,86,61,37,30.02,29.92,8,1,9,0.00
2013-7-26,86,69,58,58,56,53,86,65,39,30.08,29.98,5,1,9,0.00
2013-7-27,84,68,57,59,56,52,86,66,37,30.02,29.84,5,1,9,0.00
2013-7-28,84,67,55,57,53,49,85,64,36,29.87,29.79,7,1,11,0.00
2013-7-29,79,63,51,54,50,47,86,65,39,30.00,29.84,15,3,20,0.00
2013-7-30,81,64,51,56,52,47,87,66,37,30.08,30.00,7,1,10,0.00
2013-7-31,81,65,55,55,51,48,80,62,33,30.07,30.01,7,1,10,0.00
2013-8-1,76,64,50,53,50,46,87,64,41,30.07,29.97,7,1,10,0.00
2013-8-2,81,64,49,55,51,46,88,65,36,29.98,29.89,5,1,10,0.00
2013-8-3,83,64,49,56,52,46,89,66,35,29.98,29.88,5,1,9,0.00
2013-8-4,79,64,55,55,52,49,81,67,42,30.01,29.92,5,1,9,0.00
2013-8-5,77,64,57,55,53,51,81,68,45,30.01,29.93,5,1,10,0.00
2013-8-6,76,64,58,55,53,51,81,68,46,30.04,29.96,6,1,10,0.00
2013-8-7,76,65,57,55,52,50,80,65,45,30.08,30.01,6,1,10,0.00
2013-8-8,77,64,56,56,53,50,82,69,45,30.03,29.92,6,1,11,0.00
2013-8-9,76,65,58,56,53,50,80,67,48,29.99,29.91,7,1,11,0.00
2013-8-10,78,66,59,57,55,53,81,70,48,30.04,29.98,7,1,10,0.00
2013-8-11,79,66,59,57,55,54,83,69,46,30.02,29.93,6,1,9,0.00
2013-8-12,83,67,55,57,54,51,88,65,39,29.98,29.92,6,1,9,0.00
2013-8-13,90,69,54,56,51,43,88,59,19,29.98,29.89,6,1,10,0.00
2013-8-14,82,67,52,58,54,49,88,66,36,29.98,29.91,7,1,10,0.00
2013-8-15,84,71,60,63,60,56,85,70,48,29.96,29.91,6,1,9,0.00
2013-8-16,86,71,60,63,59,55,90,69,40,29.98,29.93,5,0,9,0.00
2013-8-17,80,67,58,59,56,52,86,69,41,29.98,29.88,5,0,8,0.00
2013-8-18,94,73,54,58,55,51,90,58,25,29.88,29.75,2,0,6,0.00
2013-8-19,92,75,63,60,56,54,73,54,28,29.88,29.77,0,0,0,0.00
2013-8-20,86,71,60,59,53,40,84,57,22,29.88,29.78,7,1,19,0.00
2013-8-21,81,66,55,57,53,50,83,66,41,29.93,29.82,6,1,9,0.00
2013-8-22,77,66,57,56,54,52,85,68,47,29.96,29.87,8,1,11,0.00
2013-8-23,77,65,58,56,54,52,82,68,47,29.93,29.82,9,1,11,0.00
2013-8-24,81,66,53,58,54,50,88,68,42,29.90,29.84,8,1,12,0.00
2013-8-25,85,70,62,60,57,51,82,65,33,29.93,29.86,9,1,17,0.00
2013-8-26,78,67,58,58,54,49,81,65,39,29.99,29.90,6,1,11,0.00
2013-8-27,82,66,52,56,52,47,85,63,35,29.91,29.81,7,1,11,0.00
2013-8-28,82,68,57,61,57,53,87,70,45,29.94,29.86,6,1,9,0.00
2013-8-29,82,70,63,61,59,57,85,70,45,30.04,29.94,7,1,9,0.00
2013-8-30,90,72,58,62,56,51,91,63,26,30.04,29.91,6,0,11,0.00
2013-8-31,82,69,57,59,56,51,84,65,40,29.97,29.88,6,1,9,0.00
2013-9-1,83,70,60,60,56,51,85,64,35,29.94,29.86,5,1,11,0.00
2013-9-2,82,70,65,61,60,59,84,71,48,29.95,29.87,6,1,12,0.00
2013-9-3,79,69,58,60,54,47,88,63,34,30.00,29.92,6,1,11,0.00
2013-9-4,79,66,55,58,54,51,89,66,38,30.04,29.94,7,1,11,0.00
2013-9-5,79,66,54,56,51,49,88,63,37,30.02,29.95,10,1,11,0.00
2013-9-6,91,70,52,54,50,46,87,54,22,29.99,29.80,5,0,9,0.00
2013-9-7,97,76,57,55,49,44,71,44,17,29.86,29.77,5,0,9,0.00
2013-9-8,92,73,56,57,52,49,84,53,23,29.85,29.73,4,0,6,0.00
2013-9-9,94,72,57,59,54,50,84,57,25,29.80,29.69,4,0,8,0.00
2013-9-10,74,64,57,55,54,52,87,70,51,29.89,29.73,17,4,26,0.00
2013-9-11,78,66,59,57,54,52,78,66,45,29.98,29.88,8,2,14,0.00
2013-9-12,79,67,62,60,57,55,82,70,51,29.97,29.87,4,0,10,0.00
2013-9-13,80,66,58,58,56,54,84,71,47,29.91,29.77,6,1,8,0.00
2013-9-14,74,64,57,57,54,52,85,73,55,29.83,29.75,6,1,10,0.00
2013-9-15,79,66,58,58,54,51,85,68,43,29.87,29.80,8,1,10,0.00
2013-9-16,82,68,58,58,55,51,87,66,40,29.89,29.79,5,1,10,0.00
2013-9-17,76,63,53,53,49,43,86,64,32,29.89,29.84,9,1,13,0.00
2013-9-18,84,65,51,53,47,37,88,58,19,29.90,29.80,8,1,12,0.00
2013-9-19,89,67,49,51,43,35,82,49,15,29.84,29.73,6,0,9,0.00
2013-9-20,78,64,50,57,51,43,86,65,46,29.87,29.76,5,1,10,0.00
2013-9-21,67,62,53,57,53,48,84,73,55,29.91,29.80,10,2,18,0.00
2013-9-22,74,60,50,54,48,44,89,67,36,30.01,29.90,7,1,11,0.00
2013-9-23,82,65,50,58,51,47,88,64,31,30.02,29.91,6,1,10,0.00
2013-9-24,75,63,54,55,49,44,88,64,34,30.00,29.91,10,1,15,0.00
2013-9-25,70,59,50,45,42,37,79,56,33,29.94,29.83,7,2,12,0.00
2013-9-26,74,58,46,45,39,29,84,54,20,29.98,29.83,6,1,15,0.00
2013-9-27,78,60,45,43,36,24,77,48,14,30.09,29.98,6,0,8,0.00
2013-9-28,84,64,47,54,39,29,81,47,14,30.08,29.98,5,0,8,0.00
2013-9-29,77,64,52,56,53,48,89,70,45,30.10,30.03,5,0,9,0.00
2013-9-30,76,65,54,59,55,51,89,73,49,30.07,29.96,5,1,11,0.00
2013-10-1,74,60,47,54,45,41,83,61,35,30.02,29.91,4,0,9,0.00
2013-10-2,78,60,48,49,45,41,87,63,28,30.01,29.92,4,1,10,0.00
2013-10-3,73,59,47,43,36,29,82,48,20,30.06,29.94,9,1,13,0.00
2013-10-4,80,66,53,34,29,25,44,27,14,30.09,29.96,15,1,15,0.00
2013-10-5,86,64,46,36,32,27,61,35,12,30.18,30.08,3,0,8,0.00
2013-10-6,87,65,47,38,34,21,60,35,9,30.10,29.99,4,0,7,0.00
2013-10-7,83,64,49,43,34,24,65,37,12,29.99,29.86,4,0,8,0.00
2013-10-8,77,59,44,46,39,33,79,51,26,29.90,29.73,4,0,8,0.00
2013-10-9,68,55,45,46,42,39,86,65,34,29.75,29.63,5,0,12,0.00
2013-10-10,69,56,44,47,42,38,81,63,36,30.01,29.76,9,2,21,0.00
2013-10-11,70,54,42,51,45,39,90,74,45,30.08,29.97,5,0,8,0.00
2013-10-12,73,55,42,50,44,39,91,69,36,30.00,29.90,7,0,8,0.00
2013-10-13,73,56,44,49,41,37,89,62,27,30.07,29.94,6,1,10,0.00
2013-10-14,78,59,44,42,38,33,82,52,20,30.11,29.98,4,0,9,0.00
2013-10-15,80,60,44,41,35,30,72,45,17,30.04,29.94,6,0,9,0.00
2013-10-16,83,62,45,41,33,24,69,39,12,30.08,30.00,9,0,14,0.00
2013-10-17,81,62,46,39,34,28,67,41,15,30.07,29.95,5,0,7,0.00
2013-10-18,81,60,44,46,38,32,72,48,19,30.04,29.96,5,0,7,0.00
2013-10-19,83,60,44,48,42,35,81,57,19,30.07,29.97,3,0,8,0.00
2013-10-20,79,58,45,52,45,40,90,67,28,30.02,29.89,3,0,6,0.00
2013-10-21,75,56,46,51,46,42,91,73,39,30.00,29.90,3,0,6,0.00
2013-10-22,76,57,46,51,48,43,90,74,38,30.02,29.91,3,0,7,0.00
2013-10-23,72,56,49,52,49,45,92,78,49,29.98,29.89,3,0,5,0.00
2013-10-24,62,54,47,49,47,43,88,79,61,30.12,29.97,4,0,7,0.00
2013-10-25,70,56,47,49,47,43,88,72,41,30.17,30.07,3,0,7,0.00
2013-10-26,78,58,44,49,45,41,90,67,28,30.15,30.01,3,0,6,0.00
2013-10-27,64,54,46,50,45,42,90,75,49,30.03,29.72,7,1,14,0.00
2013-10-28,61,55,51,45,43,39,77,64,45,29.86,29.70,12,2,13,0.00
2013-10-29,62,54,45,46,44,40,85,69,52,30.05,29.86,7,0,8,0.00
2013-10-30,67,52,41,47,42,38,91,72,39,30.15,30.05,3,0,7,0.00
2013-10-31,73,54,42,46,41,38,89,66,29,30.17,30.06,3,0,7,0.00
2013-11-1,78,57,43,45,41,38,86,61,26,30.14,30.00,3,0,6,0.00
2013-11-2,72,55,43,49,43,36,86,65,38,30.03,29.92,4,0,8,0.00
2013-11-3,64,52,42,46,36,23,89,61,22,30.04,29.92,6,0,11,0.00
2013-11-4,67,51,39,42,32,25,87,53,21,30.05,29.91,8,1,11,0.00
2013-11-5,73,55,42,37,31,27,67,45,20,30.21,30.06,5,0,11,0.00
2013-11-6,73,56,42,38,35,31,75,50,21,30.25,30.15,3,0,6,0.00
2013-11-7,76,56,44,41,36,29,76,52,19,30.16,30.06,3,0,6,0.00
2013-11-8,73,55,44,50,44,39,88,70,38,30.09,29.96,3,0,6,0.00
2013-11-9,74,55,42,46,39,30,90,62,21,30.03,29.95,7,1,20,0.00
2013-11-10,67,51,41,48,44,37,88,76,50,30.12,30.02,5,0,6,0.00
2013-11-11,67,55,46,49,46,42,88,73,48,30.15,30.07,2,0,4,0.00
2013-11-12,72,58,48,48,45,42,81,65,33,30.25,30.14,5,0,6,0.00
2013-11-13,76,57,45,51,44,39,90,67,26,30.25,30.10,3,0,7,0.00
2013-11-14,67,53,46,54,46,-100,92,82,54,30.12,29.90,4,0,6,0.00
2013-11-15,66,50,41,47,39,34,92,70,31,29.89,29.73,5,0,9,0.00
2013-11-16,64,49,39,45,40,35,88,72,42,29.94,29.78,5,0,7,0.00
2013-11-17,65,50,41,47,43,39,91,77,50,30.09,29.93,5,0,9,0.00
2013-11-18,60,50,41,46,41,-100,91,77,55,30.14,30.07,3,0,7,0.00
2013-11-19,64,56,45,54,31,-100,89,67,57,30.11,29.95,7,1,10,0.00
2013-11-20,62,56,53,56,12,-100,92,64,74,29.95,29.84,7,1,10,0.00
2013-11-21,61,53,46,50,39,26,92,63,27,29.99,29.89,7,0,12,0.00
2013-11-22,67,50,41,33,28,14,72,47,17,30.04,29.90,5,0,9,0.00
2013-11-23,67,51,39,47,36,29,81,60,28,30.11,29.96,7,0,11,0.00
2013-11-24,66,50,38,42,38,34,87,67,33,30.25,30.10,3,0,6,0.00
2013-11-25,66,50,39,43,39,35,89,71,38,30.32,30.24,4,0,5,0.00
2013-11-26,63,50,41,45,41,37,88,73,47,30.25,30.02,3,0,4,0.00
2013-11-27,68,52,41,46,42,38,90,72,41,30.02,29.82,3,0,7,0.00
2013-11-28,69,52,44,45,42,39,87,70,38,30.09,29.86,4,0,6,0.00
2013-11-29,73,53,42,44,40,36,88,67,27,30.23,30.08,3,0,5,0.00
2013-11-30,69,51,39,45,40,35,85,69,37,30.26,30.18,4,0,5,0.00
2013-12-1,72,52,41,46,41,38,90,69,31,30.33,30.21,4,0,8,0.00
2013-12-2,65,52,41,50,44,37,90,78,53,30.23,29.99,3,0,7,0.00
2013-12-3,55,49,37,49,38,29,88,67,41,29.98,29.84,5,0,11,0.00
2013-12-4,52,40,31,29,23,15,77,55,25,30.08,29.93,4,0,8,0.00
2013-12-5,52,37,26,23,18,12,78,52,22,30.18,30.08,3,0,7,0.00
2013-12-6,52,42,29,46,31,20,86,68,40,30.19,29.92,9,1,22,0.00
2013-12-7,50,42,33,46,30,20,88,65,32,30.23,29.91,11,2,18,0.00
2013-12-8,46,35,29,31,23,18,87,64,34,30.32,30.21,5,0,8,0.00
2013-12-9,51,36,26,24,18,10,73,53,25,30.41,30.31,5,0,9,0.00
2013-12-10,54,37,26,29,25,21,82,64,34,30.40,30.21,6,0,6,0.00
2013-12-11,57,40,30,31,27,25,83,63,31,30.23,30.17,2,0,6,0.00
2013-12-12,62,42,29,34,29,25,85,64,27,30.26,30.16,2,0,5,0.00
2013-12-13,61,42,32,41,32,28,87,71,31,30.33,30.23,5,0,7,0.00
2013-12-14,62,44,33,39,33,30,88,69,34,30.38,30.30,5,0,6,0.00
2013-12-15,64,45,33,38,34,30,87,68,34,30.36,30.23,3,0,5,0.00
2013-12-16,68,48,36,39,33,31,82,61,28,30.24,30.11,1,0,4,0.00
2013-12-17,67,50,38,43,36,31,78,62,33,30.17,30.03,2,0,4,0.00
2013-12-18,63,51,42,43,40,37,87,68,40,30.03,29.79,3,0,5,0.00
2013-12-19,59,47,38,41,34,27,88,65,34,29.93,29.73,8,0,12,0.00
2013-12-20,61,44,32,26,17,3,68,41,11,30.01,29.93,5,0,8,0.00
2013-12-21,63,47,36,45,36,23,88,68,48,30.08,29.97,6,0,8,0.00
2013-12-22,68,49,38,45,36,31,91,67,27,30.28,30.08,5,0,8,0.00
2013-12-23,65,48,38,41,37,34,87,69,37,30.37,30.27,4,0,6,0.00
2013-12-24,71,50,38,41,36,33,87,64,28,30.34,30.20,6,0,8,0.00
2013-12-25,68,48,37,41,35,32,83,64,31,30.28,30.18,3,0,5,0.00
2013-12-26,69,48,36,42,36,32,86,67,32,30.25,30.15,3,0,5,0.00
2013-12-27,62,47,36,42,36,31,83,67,40,30.22,30.11,1,0,4,0.00
2013-12-28,67,47,35,40,31,25,88,59,21,30.14,30.02,5,0,8,0.00
2013-12-29,69,50,40,30,25,17,62,41,16,30.17,30.08,6,0,7,0.00
2013-12-30,69,48,34,31,28,21,75,51,16,30.25,30.16,7,0,11,0.00
2013-12-31,63,45,34,39,33,26,83,65,39,30.26,30.13,5,0,7,0.00
2014-1-1,65,47,34,35,32,28,81,60,26,30.22,30.13,2,0,5,0.00
2014-1-2,67,48,37,39,33,30,77,59,27,30.18,30.07,2,0,5,0.00